Time;durP1;ratioP1;P1;durP2;ratioP2;P2;SDS_P1;SDS_P2;PMS_P1;PMS_P2;Temp;Humidity;BMP_temperature;BMP_pressure;BME280_temperature;BME280_humidity;BME280_pressure;Samples;Min_cycle;Max_cycle;Signal;HPM_P1;HPM_P2
2021/12/08 00:01:08;;;;;;;15.10;6.93;;;;;;;4.06;100.00;99078.22;5071516;28;20067;-70
2021/12/08 00:03:39;;;;;;;13.77;6.67;;;;;;;4.18;100.00;99076.97;5069947;28;20067;-70
2021/12/08 00:06:07;;;;;;;13.73;7.03;;;;;;;4.20;100.00;99078.63;5072644;28;20292;-70
2021/12/08 00:08:35;;;;;;;12.57;7.30;;;;;;;4.27;100.00;99074.00;5069853;28;20058;-70
2021/12/08 00:13:51;;;;;;;15.15;7.25;;;;;;;4.49;100.00;99066.19;5069575;28;20257;-70
2021/12/08 00:16:19;;;;;;;14.98;6.90;;;;;;;4.48;100.00;99061.84;5069165;28;20057;-68
2021/12/08 00:18:49;;;;;;;13.88;6.90;;;;;;;4.48;100.00;99065.34;5072496;28;20048;-68
2021/12/08 00:21:19;;;;;;;11.13;6.53;;;;;;;4.44;100.00;99063.72;5068694;28;20059;-68
2021/12/08 00:23:47;;;;;;;14.05;6.82;;;;;;;4.46;100.00;99042.50;5070665;28;20078;-68
2021/12/08 00:26:15;;;;;;;14.60;6.47;;;;;;;4.44;100.00;99047.88;5071550;28;20127;-68
2021/12/08 00:28:42;;;;;;;13.23;5.95;;;;;;;4.43;100.00;99050.56;5070456;28;20143;-68
2021/12/08 00:31:10;;;;;;;10.77;5.90;;;;;;;4.39;100.00;99051.56;5073369;28;20468;-70
2021/12/08 00:33:39;;;;;;;15.05;6.53;;;;;;;4.46;100.00;99063.66;5068752;28;20123;-70
2021/12/08 00:36:13;;;;;;;11.27;6.18;;;;;;;4.48;100.00;99065.34;5072568;28;20094;-70
2021/12/08 00:38:42;;;;;;;10.88;6.25;;;;;;;4.49;100.00;99055.63;5070430;28;20079;-69
2021/12/08 00:41:11;;;;;;;10.95;6.05;;;;;;;4.58;100.00;99059.72;5071472;28;20130;-69
2021/12/08 00:43:40;;;;;;;17.88;6.43;;;;;;;4.61;100.00;99059.59;5071697;28;20170;-70
2021/12/08 00:46:09;;;;;;;12.90;6.25;;;;;;;4.61;100.00;99065.75;5070290;28;20350;-69
2021/12/08 00:48:39;;;;;;;14.75;6.22;;;;;;;4.66;100.00;99070.88;5072144;28;20168;-69
2021/12/08 00:51:08;;;;;;;15.50;5.85;;;;;;;4.65;100.00;99071.81;5069931;28;20049;-70
2021/12/08 00:53:37;;;;;;;12.02;5.15;;;;;;;4.62;100.00;99079.84;5068658;28;20136;-70
2021/12/08 00:56:05;;;;;;;12.32;5.85;;;;;;;4.75;100.00;99082.88;5070465;28;20473;-68
2021/12/08 00:58:33;;;;;;;16.35;6.32;;;;;;;4.72;100.00;99083.00;5072235;28;20075;-68
2021/12/08 01:01:01;;;;;;;10.82;5.55;;;;;;;4.78;100.00;99085.41;5070414;28;20094;-68
2021/12/08 01:03:31;;;;;;;13.73;5.35;;;;;;;4.76;100.00;99089.91;5073168;28;20089;-68
2021/12/08 01:06:00;;;;;;;15.50;5.85;;;;;;;4.74;100.00;99092.59;5068054;28;20055;-68
2021/12/08 01:08:34;;;;;;;16.17;5.25;;;;;;;4.80;100.00;99086.22;5069809;28;20411;-68
2021/12/08 01:11:07;;;;;;;11.25;5.55;;;;;;;4.79;100.00;99098.56;5070492;28;20042;-68
2021/12/08 01:13:35;;;;;;;13.90;5.20;;;;;;;4.77;100.00;99096.94;5070229;28;20054;-68
2021/12/08 01:16:05;;;;;;;13.98;5.05;;;;;;;4.77;100.00;99112.78;5068399;28;20536;-68
2021/12/08 01:18:33;;;;;;;11.40;5.63;;;;;;;4.77;100.00;99115.44;5070574;28;20047;-68
2021/12/08 01:21:04;;;;;;;13.52;6.70;;;;;;;4.74;100.00;99119.03;5071543;28;20111;-68
2021/12/08 01:23:34;;;;;;;12.25;5.10;;;;;;;4.82;100.00;99131.97;5069429;28;20126;-68
2021/12/08 01:26:03;;;;;;;14.23;5.78;;;;;;;4.81;100.00;99132.88;5067477;28;20057;-68
2021/12/08 01:28:31;;;;;;;13.05;5.97;;;;;;;4.87;100.00;99132.69;5070216;28;20141;-68
2021/12/08 01:31:01;;;;;;;14.52;5.65;;;;;;;4.83;100.00;99129.25;5067749;28;20500;-68
2021/12/08 01:33:31;;;;;;;11.82;5.55;;;;;;;4.88;100.00;99137.03;5072250;28;20135;-68
2021/12/08 01:36:01;;;;;;;17.48;6.97;;;;;;;4.81;100.00;99125.81;5070390;28;20068;-68
2021/12/08 01:38:30;;;;;;;13.93;5.30;;;;;;;4.83;100.00;99126.59;5070379;28;20629;-69
2021/12/08 01:41:00;;;;;;;11.77;6.32;;;;;;;4.85;100.00;99129.19;5068655;28;20167;-70
2021/12/08 01:43:41;;;;;;;13.30;5.38;;;;;;;4.83;100.00;99137.19;5070827;28;20890;-70
2021/12/08 01:46:10;;;;;;;15.18;6.93;;;;;;;4.82;100.00;99130.19;5070323;28;20370;-70
2021/12/08 01:48:41;;;;;;;15.70;7.22;;;;;;;4.79;100.00;99142.66;5067571;28;20063;-70
2021/12/08 01:51:13;;;;;;;13.63;7.10;;;;;;;4.83;100.00;99134.53;5069409;28;20102;-70
2021/12/08 01:53:43;;;;;;;14.85;6.45;;;;;;;4.82;100.00;99140.75;5069395;28;20135;-71
2021/12/08 01:56:13;;;;;;;13.98;6.72;;;;;;;4.80;100.00;99139.97;5066550;28;20110;-70
2021/12/08 01:58:41;;;;;;;16.88;6.68;;;;;;;4.82;100.00;99151.34;5073261;28;20063;-70
2021/12/08 02:01:11;;;;;;;15.52;6.50;;;;;;;4.81;100.00;99157.53;5066504;28;20485;-70
2021/12/08 02:03:41;;;;;;;13.30;5.97;;;;;;;4.83;100.00;99152.19;5068536;28;20056;-70
2021/12/08 02:06:11;;;;;;;18.08;6.70;;;;;;;4.77;100.00;99158.56;5068320;28;20240;-70
2021/12/08 02:08:39;;;;;;;17.15;7.18;;;;;;;4.79;100.00;99158.50;5071019;28;20083;-70
2021/12/08 02:11:08;;;;;;;13.48;6.13;;;;;;;4.80;100.00;99163.75;5072792;28;20074;-70
2021/12/08 02:13:39;;;;;;;13.95;6.30;;;;;;;4.78;100.00;99162.91;5068092;28;20125;-70
2021/12/08 02:16:11;;;;;;;14.18;5.72;;;;;;;4.84;100.00;99168.00;5067388;28;20180;-70
2021/12/08 02:18:39;;;;;;;15.05;6.07;;;;;;;4.85;100.00;99158.28;5070024;28;20057;-70
2021/12/08 02:21:22;;;;;;;16.65;5.70;;;;;;;4.91;100.00;99171.28;5067971;28;20049;-70
2021/12/08 02:23:51;;;;;;;16.02;5.05;;;;;;;4.82;100.00;99167.19;5066123;28;20056;-70
2021/12/08 02:26:19;;;;;;;13.27;5.72;;;;;;;4.86;100.00;99174.06;5069334;28;20454;-70
2021/12/08 02:28:47;;;;;;;15.15;6.03;;;;;;;4.86;100.00;99176.72;5069212;28;20059;-70
2021/12/08 02:31:21;;;;;;;18.08;6.35;;;;;;;4.83;100.00;99174.19;5069655;28;20060;-70
2021/12/08 02:47:52;;;;;;;18.25;6.30;;;;;;;4.77;100.00;99161.19;5039736;28;20086;-70
2021/12/08 02:50:24;;;;;;;14.07;5.40;;;;;;;4.79;100.00;99167.28;5071760;28;20054;-70
2021/12/08 02:52:55;;;;;;;11.55;5.32;;;;;;;4.80;100.00;99174.31;5072025;28;20554;-70
2021/12/08 02:55:23;;;;;;;12.23;4.78;;;;;;;4.81;100.00;99170.72;5068996;28;20048;-70
2021/12/08 02:57:52;;;;;;;15.80;4.75;;;;;;;4.79;100.00;99179.66;5072903;28;20101;-70
2021/12/08 03:00:25;;;;;;;12.20;4.55;;;;;;;4.81;100.00;99170.72;5070657;28;20114;-70
2021/12/08 03:02:55;;;;;;;8.10;3.22;;;;;;;4.79;100.00;99177.84;5070926;28;20297;-70
2021/12/08 03:05:23;;;;;;;10.95;3.40;;;;;;;4.81;100.00;99181.31;5071101;28;20830;-70
2021/12/08 03:07:53;;;;;;;8.43;3.35;;;;;;;4.84;100.00;99181.19;5072619;28;20078;-70
2021/12/08 03:10:25;;;;;;;7.38;2.85;;;;;;;4.84;100.00;99191.78;5070186;28;20048;-70
2021/12/08 03:12:53;;;;;;;8.88;3.08;;;;;;;4.76;100.00;99192.97;5074827;28;20043;-70
2021/12/08 03:15:21;;;;;;;9.20;2.80;;;;;;;4.74;100.00;99182.44;5071063;28;20079;-70
2021/12/08 03:17:50;;;;;;;5.97;2.58;;;;;;;4.68;100.00;99180.00;5070698;28;20203;-70
2021/12/08 03:20:23;;;;;;;7.32;2.90;;;;;;;4.69;100.00;99179.09;5072439;28;20147;-70
2021/12/08 03:22:52;;;;;;;7.22;2.50;;;;;;;4.61;100.00;99181.13;5069452;28;20603;-70
2021/12/08 03:25:23;;;;;;;9.40;2.85;;;;;;;4.61;100.00;99170.56;5073965;28;20044;-70
2021/12/08 03:28:04;;;;;;;5.00;2.63;;;;;;;4.51;100.00;99177.06;5070531;28;20051;-70
2021/12/08 03:30:38;;;;;;;10.05;2.97;;;;;;;4.51;100.00;99182.34;5071274;28;20297;-71
2021/12/08 03:33:06;;;;;;;10.68;4.22;;;;;;;4.50;100.00;99197.34;5071487;28;20044;-71
2021/12/08 03:35:34;;;;;;;6.88;3.17;;;;;;;4.43;100.00;99195.84;5072940;28;20047;-68
2021/12/08 03:38:02;;;;;;;7.40;3.35;;;;;;;4.33;100.00;99195.25;5069686;28;20052;-71
2021/12/08 03:40:32;;;;;;;8.95;3.08;;;;;;;4.36;100.00;99196.94;5072789;28;20055;-71
2021/12/08 03:43:00;;;;;;;8.30;3.10;;;;;;;4.32;100.00;99201.44;5070735;28;20138;-71
2021/12/08 03:45:32;;;;;;;10.20;4.18;;;;;;;4.30;100.00;99198.00;5073947;28;20040;-70
2021/12/08 03:48:05;;;;;;;10.13;3.50;;;;;;;4.31;100.00;99199.75;5068655;28;20116;-71
2021/12/08 03:50:37;;;;;;;12.93;3.50;;;;;;;4.29;100.00;99213.00;5074380;28;20170;-71
2021/12/08 03:53:05;;;;;;;7.95;3.53;;;;;;;4.23;100.00;99225.53;5072035;28;20048;-71
2021/12/08 03:55:40;;;;;;;8.13;3.33;;;;;;;4.28;100.00;99227.09;5070288;28;20055;-71
2021/12/08 03:58:10;;;;;;;9.05;3.53;;;;;;;4.25;100.00;99219.25;5073403;28;20134;-70
2021/12/08 04:00:39;;;;;;;8.93;3.08;;;;;;;4.20;100.00;99238.81;5070231;28;20056;-69
2021/12/08 04:03:08;;;;;;;8.45;3.10;;;;;;;4.19;100.00;99237.97;5069011;28;20048;-71
2021/12/08 04:05:44;;;;;;;12.18;3.67;;;;;;;4.14;100.00;99239.88;5074115;28;20080;-70
2021/12/08 04:08:19;;;;;;;7.63;3.33;;;;;;;4.17;100.00;99233.63;5068269;28;20503;-69
2021/12/08 04:10:52;;;;;;;12.05;3.55;;;;;;;4.11;100.00;99229.41;5073019;28;20048;-69
2021/12/08 04:13:24;;;;;;;8.13;2.85;;;;;;;4.21;100.00;99217.66;5071234;28;20059;-69
2021/12/08 04:15:53;;;;;;;7.75;3.80;;;;;;;4.19;100.00;99216.84;5068551;28;20044;-71
2021/12/08 04:18:21;;;;;;;9.20;3.88;;;;;;;4.10;100.00;99223.28;5070023;28;20183;-71
2021/12/08 04:20:53;;;;;;;9.27;3.65;;;;;;;4.05;100.00;99224.31;5071965;28;20055;-71
2021/12/08 04:23:23;;;;;;;14.18;3.70;;;;;;;4.02;100.00;99227.03;5066249;28;20136;-71
2021/12/08 04:25:57;;;;;;;14.38;4.30;;;;;;;3.96;100.00;99235.16;5072382;28;20086;-71
2021/12/08 04:28:28;;;;;;;;;;;;;;;3.92;100.00;99231.75;5071739;28;20604;-69
2021/12/08 04:30:59;;;;;;;16.42;4.47;;;;;;;4.02;100.00;99235.84;5071875;28;20218;-71
2021/12/08 04:33:30;;;;;;;15.13;4.88;;;;;;;3.95;100.00;99242.22;5071146;28;20107;-72
2021/12/08 04:36:01;;;;;;;13.73;4.15;;;;;;;3.98;100.00;99251.81;5069740;28;20055;-71
2021/12/08 04:38:38;;;;;;;17.27;4.65;;;;;;;3.99;100.00;99246.50;5071749;28;20293;-70
2021/12/08 04:41:13;;;;;;;12.95;4.20;;;;;;;3.91;100.00;99269.59;5071513;28;20079;-71
2021/12/08 04:43:50;;;;;;;9.25;3.05;;;;;;;4.03;100.00;99263.09;5070083;28;20133;-72
2021/12/08 04:46:30;;;;;;;11.90;3.55;;;;;;;3.97;100.00;99268.53;5069534;28;20135;-71
2021/12/08 04:49:21;;;;;;;10.88;4.13;;;;;;;3.96;100.00;99257.13;5072890;28;20057;-72
2021/12/08 04:51:55;;;;;;;9.35;3.42;;;;;;;3.84;100.00;99239.88;5067567;28;20044;-72
2021/12/08 05:00:28;;;;;;;13.05;3.65;;;;;;;3.88;100.00;99246.81;5069197;28;20086;-70
2021/12/08 05:03:21;;;;;;;9.10;3.47;;;;;;;3.82;100.00;99238.22;5072152;28;20479;-71
2021/12/08 05:06:16;;;;;;;14.65;3.40;;;;;;;3.81;100.00;99242.63;5071472;28;20281;-71
2021/12/08 05:08:45;;;;;;;8.27;3.33;;;;;;;3.84;100.00;99249.59;5070186;28;20051;-71
2021/12/08 05:11:17;;;;;;;15.50;3.28;;;;;;;3.83;100.00;99251.38;5070408;28;20050;-71
2021/12/08 05:13:51;;;;;;;7.63;2.75;;;;;;;3.87;100.00;99260.06;5070672;28;20086;-72
2021/12/08 05:16:21;;;;;;;10.63;3.30;;;;;;;3.82;100.00;99262.81;5070251;28;20245;-71
2021/12/08 05:18:51;;;;;;;5.50;2.70;;;;;;;3.86;100.00;99260.97;5072086;28;20223;-72
2021/12/08 05:21:25;;;;;;;8.85;2.58;;;;;;;3.84;100.00;99260.16;5071223;28;20410;-69
2021/12/08 05:23:57;;;;;;;6.80;2.28;;;;;;;3.75;100.00;99256.00;5069287;28;20795;-68
2021/12/08 05:26:33;;;;;;;13.25;3.60;;;;;;;3.85;100.00;99264.53;5070376;28;20469;-68
2021/12/08 05:29:10;;;;;;;10.30;3.53;;;;;;;3.76;100.00;99264.78;5068467;28;20052;-68
2021/12/08 05:31:38;;;;;;;12.88;2.65;;;;;;;3.75;100.00;99274.47;5070039;28;20834;-68
2021/12/08 05:34:09;;;;;;;13.57;2.70;;;;;;;3.69;100.00;99282.56;5070318;28;20054;-68
2021/12/08 05:36:38;;;;;;;10.55;2.63;;;;;;;3.72;100.00;99285.97;5068585;28;20063;-68
2021/12/08 05:39:11;;;;;;;15.02;2.28;;;;;;;3.70;100.00;99284.31;5069949;28;20518;-68
2021/12/08 05:41:42;;;;;;;7.30;2.35;;;;;;;3.73;100.00;99289.50;5070376;28;20043;-68
2021/12/08 05:44:12;;;;;;;8.07;2.60;;;;;;;3.66;100.00;99291.44;5070227;28;20047;-68
2021/12/08 05:46:43;;;;;;;4.35;2.00;;;;;;;3.69;100.00;99306.31;5071207;28;20055;-68
2021/12/08 05:49:15;;;;;;;9.10;2.50;;;;;;;3.76;100.00;99301.72;5072945;28;20268;-70
2021/12/08 05:51:44;;;;;;;6.93;2.00;;;;;;;3.76;100.00;99307.84;5068833;28;20050;-69
2021/12/08 05:54:19;;;;;;;13.45;2.72;;;;;;;3.68;100.00;99300.16;5069949;28;20082;-68
2021/12/08 05:56:50;;;;;;;9.75;2.88;;;;;;;3.72;100.00;99299.16;5068554;28;20048;-68
2021/12/08 05:59:19;;;;;;;9.48;2.63;;;;;;;3.62;100.00;99305.59;5070194;28;20420;-70
2021/12/08 06:01:51;;;;;;;8.48;3.40;;;;;;;3.60;100.00;99310.06;5067856;28;20117;-70
2021/12/08 06:04:22;;;;;;;8.57;3.08;;;;;;;3.64;100.00;99313.47;5068852;28;20120;-71
2021/12/08 06:06:50;;;;;;;14.27;2.65;;;;;;;3.65;100.00;99299.41;5068670;28;20079;-70
2021/12/08 06:09:21;;;;;;;8.05;2.30;;;;;;;3.67;100.00;99316.03;5070070;28;20046;-70
2021/12/08 06:11:50;;;;;;;6.53;3.08;;;;;;;3.60;100.00;99302.16;5069407;28;20226;-70
2021/12/08 06:14:22;;;;;;;7.97;2.90;;;;;;;3.53;100.00;99313.78;5067982;28;20187;-70
2021/12/08 06:16:52;;;;;;;11.55;3.33;;;;;;;3.47;100.00;99322.72;5066699;28;20084;-70
2021/12/08 06:19:21;;;;;;;8.15;2.50;;;;;;;3.52;100.00;99338.44;5073935;28;20707;-68
2021/12/08 06:21:50;;;;;;;11.13;2.72;;;;;;;3.52;100.00;99341.06;5071912;28;20052;-68
2021/12/08 06:24:20;;;;;;;11.30;3.72;;;;;;;3.57;100.00;99340.94;5075058;28;20125;-68
2021/12/08 06:26:48;;;;;;;17.30;2.83;;;;;;;3.61;100.00;99348.75;5072861;28;20313;-69
2021/12/08 06:29:18;;;;;;;10.10;3.35;;;;;;;3.54;100.00;99357.69;5074599;28;20180;-69
2021/12/08 06:31:51;;;;;;;11.30;2.60;;;;;;;3.62;100.00;99355.72;5069510;28;20374;-69
2021/12/08 06:34:19;;;;;;;12.47;3.37;;;;;;;3.61;100.00;99355.78;5075328;28;20211;-69
2021/12/08 06:36:52;;;;;;;11.48;2.60;;;;;;;3.60;100.00;99349.63;5072586;28;20052;-68
2021/12/08 06:39:25;;;;;;;10.13;2.97;;;;;;;3.61;100.00;99359.28;5072746;28;20072;-69
2021/12/08 06:41:59;;;;;;;11.02;2.70;;;;;;;3.47;100.00;99346.44;5070370;28;20132;-69
2021/12/08 06:44:31;;;;;;;12.52;4.22;;;;;;;3.58;100.00;99361.16;5072715;28;20063;-69
2021/12/08 06:47:05;;;;;;;8.27;2.67;;;;;;;3.48;100.00;99352.59;5074665;28;20059;-69
2021/12/08 06:49:33;;;;;;;6.78;2.22;;;;;;;3.54;100.00;99358.59;5073450;28;20056;-69
2021/12/08 06:52:06;;;;;;;11.93;3.50;;;;;;;3.51;100.00;99344.63;5071332;28;20083;-69
2021/12/08 06:54:38;;;;;;;10.27;2.72;;;;;;;3.57;100.00;99357.63;5073042;28;20048;-69
2021/12/08 06:57:13;;;;;;;8.88;2.30;;;;;;;3.49;100.00;99363.13;5072901;28;20119;-69
2021/12/08 06:59:54;;;;;;;9.80;2.83;;;;;;;3.40;100.00;99370.41;5073311;28;20163;-69
2021/12/08 07:02:47;;;;;;;10.13;2.90;;;;;;;3.40;100.00;99358.06;5073838;28;20080;-69
2021/12/08 07:05:26;;;;;;;12.73;3.33;;;;;;;3.42;100.00;99372.06;5074003;28;20059;-69
2021/12/08 07:07:58;;;;;;;11.48;3.92;;;;;;;3.45;100.00;99376.41;5071227;28;20508;-70
2021/12/08 07:10:29;;;;;;;14.23;3.90;;;;;;;3.40;100.00;99380.94;5072562;28;20202;-70
2021/12/08 07:13:02;;;;;;;15.77;4.15;;;;;;;3.35;100.00;99370.50;5072461;28;20059;-72
2021/12/08 07:15:34;;;;;;;14.25;3.60;;;;;;;3.34;100.00;99372.28;5073727;28;20143;-71
2021/12/08 07:18:07;;;;;;;12.63;3.65;;;;;;;3.32;100.00;99379.38;5072133;28;20131;-70
2021/12/08 07:20:45;;;;;;;13.98;2.70;;;;;;;3.34;100.00;99374.06;5073330;28;20484;-70
2021/12/08 07:23:17;;;;;;;9.32;3.53;;;;;;;3.39;100.00;99377.47;5072182;28;20056;-70
2021/12/08 07:25:52;;;;;;;14.85;4.10;;;;;;;3.44;100.00;99385.22;5072341;28;20048;-70
2021/12/08 07:28:22;;;;;;;9.25;2.83;;;;;;;3.38;100.00;99388.91;5070384;28;20431;-70
2021/12/08 07:30:53;;;;;;;10.52;3.40;;;;;;;3.33;100.00;99383.72;5070748;28;20246;-70
2021/12/08 07:33:23;;;;;;;10.70;3.13;;;;;;;3.29;100.00;99387.38;5069484;28;20525;-70
2021/12/08 07:35:55;;;;;;;13.38;3.20;;;;;;;3.26;100.00;99394.50;5070270;28;20079;-70
2021/12/08 07:38:26;;;;;;;12.77;3.50;;;;;;;3.37;100.00;99395.06;5067336;28;20083;-70
2021/12/08 07:41:05;;;;;;;7.90;3.05;;;;;;;3.42;100.00;99387.91;5072552;28;20056;-70
2021/12/08 07:43:36;;;;;;;16.30;3.85;;;;;;;3.33;100.00;99388.16;5071291;28;20044;-70
2021/12/08 07:46:08;;;;;;;9.07;3.10;;;;;;;3.33;100.00;99380.25;5072105;28;20048;-70
2021/12/08 07:48:42;;;;;;;7.40;2.53;;;;;;;3.39;100.00;99390.66;5069922;28;20056;-70
2021/12/08 07:51:13;;;;;;;10.23;3.15;;;;;;;3.38;100.00;99390.69;5073544;28;20071;-71
2021/12/08 07:53:45;;;;;;;11.05;3.25;;;;;;;3.27;100.00;99383.91;5069483;28;20123;-71
2021/12/08 07:56:17;;;;;;;11.63;3.67;;;;;;;3.30;100.00;99378.56;5074189;28;20580;-70
2021/12/08 07:58:50;;;;;;;12.52;3.97;;;;;;;3.31;100.00;99384.69;5070814;28;20052;-70
2021/12/08 08:01:24;;;;;;;11.02;4.30;;;;;;;3.29;100.00;99394.41;5070842;28;20047;-70
2021/12/08 08:03:54;;;;;;;;;;;;;;;3.27;100.00;99389.19;5073566;28;20054;-70
2021/12/08 08:06:26;;;;;;;11.43;4.10;;;;;;;3.30;100.00;99397.03;5072323;28;19924;-70
2021/12/08 08:08:55;;;;;;;15.73;3.58;;;;;;;3.19;100.00;99396.41;5071347;28;20067;-70
2021/12/08 08:11:27;;;;;;;9.23;2.67;;;;;;;3.25;100.00;99411.19;5070380;28;20052;-68
2021/12/08 08:13:56;;;;;;;7.90;2.63;;;;;;;3.32;100.00;99404.88;5072235;28;20066;-68
2021/12/08 08:16:27;;;;;;;12.07;2.80;;;;;;;3.32;100.00;99408.38;5068807;28;20060;-68
2021/12/08 08:19:04;;;;;;;10.40;2.83;;;;;;;3.50;100.00;99409.66;5072903;28;20086;-69
2021/12/08 08:21:37;;;;;;;13.23;3.50;;;;;;;3.50;100.00;99403.53;5068470;28;20050;-68
2021/12/08 08:24:07;;;;;;;12.68;3.90;;;;;;;3.59;100.00;99412.97;5072015;28;20171;-69
2021/12/08 08:26:36;;;;;;;9.65;3.00;;;;;;;3.69;100.00;99425.88;5068531;28;20113;-68
2021/12/08 08:29:06;;;;;;;11.35;3.42;;;;;;;3.82;100.00;99420.28;5071228;28;20446;-69
2021/12/08 08:31:39;;;;;;;10.13;2.83;;;;;;;3.88;100.00;99422.75;5070511;28;20086;-68
2021/12/08 08:34:10;;;;;;;7.28;2.90;;;;;;;3.88;100.00;99426.28;5072009;28;20135;-70
2021/12/08 08:36:41;;;;;;;13.38;3.28;;;;;;;3.86;100.00;99411.38;5075048;28;20410;-70
2021/12/08 08:39:12;;;;;;;12.90;3.50;;;;;;;3.84;100.00;99413.19;5069864;28;20095;-70
2021/12/08 08:41:44;;;;;;;11.75;3.63;;;;;;;3.82;100.00;99409.75;5070261;28;20150;-70
2021/12/08 08:44:15;;;;;;;7.32;2.83;;;;;;;3.80;100.00;99406.25;5068825;28;20060;-71
2021/12/08 08:46:45;;;;;;;13.63;3.08;;;;;;;3.84;100.00;99411.41;5070494;28;20036;-71
2021/12/08 08:49:21;;;;;;;10.25;3.72;;;;;;;3.87;100.00;99418.41;5069720;28;20050;-71
2021/12/08 08:51:59;;;;;;;7.05;2.83;;;;;;;3.83;100.00;99424.66;5074163;28;20205;-71
2021/12/08 08:54:33;;;;;;;8.02;2.58;;;;;;;3.85;100.00;99426.34;5067795;28;20464;-71
2021/12/08 08:57:06;;;;;;;12.10;3.05;;;;;;;3.89;100.00;99429.78;5072731;28;20532;-71
2021/12/08 08:59:42;;;;;;;10.75;2.88;;;;;;;3.87;100.00;99426.31;5067890;28;20480;-72
2021/12/08 09:02:14;;;;;;;10.85;2.97;;;;;;;3.94;100.00;99422.59;5067930;28;20052;-72
2021/12/08 09:04:48;;;;;;;9.02;3.75;;;;;;;3.99;100.00;99433.88;5070401;28;20047;-72
2021/12/08 09:07:21;;;;;;;10.52;3.03;;;;;;;3.96;100.00;99439.25;5068501;28;20074;-71
2021/12/08 09:09:54;;;;;;;7.72;2.85;;;;;;;4.01;100.00;99439.13;5068940;28;20048;-71
2021/12/08 09:12:26;;;;;;;9.38;2.70;;;;;;;4.07;100.00;99433.66;5067491;28;20052;-72
2021/12/08 09:15:00;;;;;;;17.58;3.38;;;;;;;4.07;100.00;99447.75;5073180;28;20056;-69
2021/12/08 09:17:31;;;;;;;6.95;2.83;;;;;;;4.07;100.00;99436.31;5069318;28;20279;-69
2021/12/08 09:20:12;;;;;;;10.45;3.30;;;;;;;4.09;100.00;99426.59;5072181;28;20114;-70
2021/12/08 09:22:54;;;;;;;7.05;3.13;;;;;;;4.16;100.00;99429.94;5071776;28;20055;-71
2021/12/08 09:25:28;;;;;;;19.63;3.50;;;;;;;4.09;100.00;99431.88;5070242;28;20048;-69
2021/12/08 09:27:59;;;;;;;9.35;3.05;;;;;;;4.15;100.00;99434.31;5068004;28;20139;-72
2021/12/08 09:30:33;;;;;;;8.30;2.83;;;;;;;4.20;100.00;99444.75;5068325;28;20093;-69
2021/12/08 09:33:07;;;;;;;10.43;2.90;;;;;;;4.20;100.00;99444.75;5069745;28;20102;-69
2021/12/08 09:35:44;;;;;;;8.98;2.83;;;;;;;4.20;100.00;99473.81;5070870;28;20484;-69
2021/12/08 09:38:17;;;;;;;12.93;3.30;;;;;;;4.25;100.00;99461.34;5071700;28;20086;-68
2021/12/08 09:40:53;;;;;;;9.15;3.10;;;;;;;4.27;100.00;99460.41;5072777;28;20124;-69
2021/12/08 09:43:26;;;;;;;9.80;3.70;;;;;;;4.29;100.00;99453.28;5069838;28;20040;-69
2021/12/08 09:45:59;;;;;;;7.88;2.97;;;;;;;4.37;100.00;99463.63;5071240;28;20151;-68
2021/12/08 09:48:29;;;;;;;13.93;3.40;;;;;;;4.36;100.00;99461.91;5071028;28;20081;-72
2021/12/08 09:51:03;;;;;;;8.00;2.75;;;;;;;4.38;100.00;99464.50;5099600;27;20047;-68
2021/12/08 09:53:33;;;;;;;12.20;3.08;;;;;;;4.38;100.00;99462.72;5069392;28;20492;-69
2021/12/08 09:56:05;;;;;;;8.45;3.65;;;;;;;4.36;100.00;99476.88;5068983;28;20713;-69
2021/12/08 09:58:35;;;;;;;9.82;3.85;;;;;;;4.33;100.00;99477.84;5070555;28;20511;-68
2021/12/08 10:01:04;;;;;;;17.13;5.15;;;;;;;4.42;100.00;99482.84;5070434;28;20530;-68
2021/12/08 10:03:33;;;;;;;8.25;3.40;;;;;;;4.45;100.00;99493.34;5070740;28;20059;-71
2021/12/08 10:06:09;;;;;;;9.38;3.42;;;;;;;4.46;100.00;99486.25;5068836;28;20044;-69
2021/12/08 10:08:39;;;;;;;6.37;3.20;;;;;;;4.42;100.00;99514.53;5099695;27;20056;-69
2021/12/08 10:11:10;;;;;;;15.02;4.72;;;;;;;4.46;100.00;99513.56;5069575;28;20300;-69
2021/12/08 10:13:45;;;;;;;10.70;4.07;;;;;;;4.48;100.00;99505.59;5069609;28;20055;-69
2021/12/08 10:16:21;;;;;;;9.57;4.32;;;;;;;4.47;100.00;99507.34;5072600;28;20078;-70
2021/12/08 10:19:12;;;;;;;9.00;4.25;;;;;;;4.49;100.00;99497.63;5069874;28;20056;-71
2021/12/08 10:22:00;;;;;;;11.85;3.03;;;;;;;4.54;100.00;99513.34;5069778;28;20055;-70
2021/12/08 10:24:41;;;;;;;11.65;4.80;;;;;;;4.53;100.00;99506.34;5068749;28;20044;-69
2021/12/08 10:27:13;;;;;;;12.65;4.40;;;;;;;4.50;100.00;99503.78;5071735;28;20056;-75
2021/12/08 10:29:41;;;;;;;9.65;4.30;;;;;;;4.57;100.00;99502.69;5070930;28;20044;-74
2021/12/08 10:32:14;;;;;;;10.45;4.85;;;;;;;4.54;100.00;99493.97;5073468;28;20543;-73
2021/12/08 10:34:52;;;;;;;13.90;4.68;;;;;;;4.59;100.00;99508.78;5069052;28;20048;-74
2021/12/08 10:37:22;;;;;;;11.50;4.82;;;;;;;4.64;100.00;99511.31;5068803;28;20071;-74
2021/12/08 10:43:06;;;;;;;11.43;4.32;;;;;;;4.65;100.00;99505.97;5070384;28;20045;-70
2021/12/08 10:48:54;;;;;;;12.50;4.03;;;;;;;4.80;100.00;99506.44;5069069;28;20046;-71
2021/12/08 10:55:12;;;;;;;13.40;4.72;;;;;;;4.70;100.00;99511.13;5039295;28;20122;-72
2021/12/08 10:57:40;;;;;;;11.45;4.25;;;;;;;4.71;100.00;99518.13;5068726;28;20051;-75
2021/12/08 11:00:11;;;;;;;9.70;4.07;;;;;;;4.83;100.00;99511.63;5068231;28;20057;-76
2021/12/08 11:02:46;;;;;;;13.55;4.78;;;;;;;5.01;100.00;99508.44;5068796;28;20110;-75
2021/12/08 11:08:31;;;;;;;14.88;4.78;;;;;;;4.95;100.00;99508.59;5074239;28;20055;-75
2021/12/08 11:11:05;;;;;;;8.23;3.50;;;;;;;5.02;100.00;99510.19;5073882;28;20508;-75
2021/12/08 11:13:37;;;;;;;7.90;3.72;;;;;;;4.95;100.00;99505.97;5074696;28;20473;-75
2021/12/08 11:16:11;;;;;;;13.23;4.68;;;;;;;4.86;100.00;99525.63;5074144;28;20056;-75
2021/12/08 11:18:41;;;;;;;14.80;4.45;;;;;;;4.82;100.00;99526.63;5071457;28;20044;-75
2021/12/08 11:21:16;;;;;;;9.60;4.40;;;;;;;4.88;100.00;99517.66;5072397;28;20044;-76
2021/12/08 11:24:11;;;;;;;10.30;3.90;;;;;;;4.92;100.00;99515.78;5073131;28;20441;-76
2021/12/08 11:26:43;;;;;;;12.88;4.85;;;;;;;4.77;100.00;99514.47;5072628;28;20056;-76
2021/12/08 11:29:13;;;;;;;9.15;4.03;;;;;;;4.98;100.00;99528.81;5074483;28;20048;-76
2021/12/08 11:31:44;;;;;;;10.05;4.13;;;;;;;4.99;100.00;99517.34;5073866;28;20070;-77
2021/12/08 11:34:18;;;;;;;11.77;4.53;;;;;;;5.00;100.00;99524.34;5073458;28;20193;-77
2021/12/08 11:36:52;;;;;;;14.70;4.05;;;;;;;5.07;100.00;99525.88;5071237;28;20047;-77
2021/12/08 11:39:30;;;;;;;10.98;4.28;;;;;;;5.11;100.00;99532.81;5071581;28;20129;-74
2021/12/08 11:42:56;;;;;;;8.27;3.95;;;;;;;5.16;100.00;99527.38;5052778;28;20241;-73
2021/12/08 11:46:02;;;;;;;8.10;3.80;;;;;;;5.04;100.00;99553.28;5071645;28;20408;-73
2021/12/08 11:59:58;;;;;;;13.13;4.75;;;;;;;5.39;100.00;99531.97;5060717;28;20457;-73
2021/12/08 12:07:02;;;;;;;8.75;4.30;;;;;;;5.30;100.00;99538.41;5068835;28;20117;-73
2021/12/08 12:10:10;;;;;;;12.88;5.00;;;;;;;5.37;100.00;99525.84;5057932;28;20068;-73
2021/12/08 12:13:39;;;;;;;10.00;3.78;;;;;;;5.49;100.00;99536.03;5071714;28;20071;-74
2021/12/08 12:16:08;;;;;;;13.60;4.82;;;;;;;5.51;100.00;99525.41;5074014;28;20110;-77
2021/12/08 12:18:42;;;;;;;10.25;5.20;;;;;;;5.38;100.00;99523.16;5073136;28;20044;-78
2021/12/08 12:21:21;;;;;;;11.93;4.90;;;;;;;5.37;100.00;99532.00;5073370;28;20449;-77
2021/12/08 12:24:02;;;;;;;11.07;5.20;;;;;;;5.45;100.00;99545.00;5075949;28;20076;-78
2021/12/08 12:26:47;;;;;;;15.95;4.93;;;;;;;5.54;100.00;99544.69;5073343;28;20056;-77
2021/12/08 12:29:25;;;;;;;13.73;5.05;;;;;;;5.58;100.00;99554.28;5069425;28;20084;-80
2021/12/08 12:32:02;;;;;;;14.55;5.32;;;;;;;5.54;100.00;99557.94;5076296;28;20125;-78
2021/12/08 12:34:32;;;;;;;17.95;5.78;;;;;;;5.56;100.00;99537.56;5074810;28;20645;-80
2021/12/08 12:37:25;;;;;;;18.35;6.15;;;;;;;5.51;100.00;99543.94;5072202;28;20124;-78
2021/12/08 12:39:55;;;;;;;13.93;5.85;;;;;;;5.52;100.00;99548.31;5070514;28;20073;-79
2021/12/08 12:42:24;;;;;;;17.83;5.82;;;;;;;5.54;100.00;99555.28;5075215;28;20047;-79
2021/12/08 12:45:49;;;;;;;9.77;4.97;;;;;;;5.67;100.00;99560.19;5072835;28;20138;-73
2021/12/08 12:49:21;;;;;;;11.50;4.40;;;;;;;6.07;100.00;99572.16;5070851;28;20132;-79